Aeroporto :
LOGIN :

Iscrizione | Disclaimer

   EN    FR    IT 

 










Sommario :    VFR   VFR Marginale   IFR   IFR Intensivo   IFR Molto Intensivo
Visibilità : 
Base nubi : 
>= 8 km
>= 3000ft
5 / 8 km
1000 / 3000 ft
1500m / 5 km
500 / 1000 ft
800 / 1500m
200 / 500 ft
< 800m
< 200 ft
Simboli :   Temporali  Nebbia  Neve Forte  Precipitazioni Forti  Vento > 20 kt
SIGMETs :   Varie  Temporali  Ghiacco  Turbolenza  Onda orograficha  Ceneri Vulcaniche






- Altitudine del aeroporto : 287 ft


LFRL - Lanveoc Poulmic

ULTIMO METAR :
  • 242230Z AUTO 09003KT 7000 OVC008 06/03 Q1019

METARs OBSOLETI :
  • 242200Z AUTO 11003KT 7000 OVC008 06/03 Q1019
  • 242130Z AUTO 11004KT 7000 OVC010 06/03 Q1019
  • 242100Z AUTO 11006KT 7000 OVC009 06/03 Q1019
  • 242030Z AUTO 11006KT 7000 OVC009 06/03 Q1019
  • 242000Z AUTO 09005KT 7000 OVC012 06/03 Q1019

TAF TAF LFRL
Valido dal 24 a 12 ore il 25 a 12 ore UTC


241100Z 2412/2512 05010KT 4500 BR NSC
BECMG 2418/2420 BKN009
BECMG 2420/2422 1500 BR BKN004
TEMPO 2422/2512 0200 -DZ FG VV///



MetMap, La meteo Aeronautica in un colpo d'occhio ! - Copyright ORBIFLY Dicembre 2007 - Disclaimer

ORBIFLY MET'MAP TEAM :

Programmazione e sviluppo : Alexandra Zaïnal
Concezione : Baudouin d'Aumeries
Aiuto per la programmazione : Marc-Olivier Méhu
Supporto tecnico e logistico : Manuel Goepfert
Aiuto per la traduzione : Arnaldo La Scala

Contatto : metmap@orbifly.com




FONTI E CREDITI :

   NOAA